Time,TemperatureF,DewpointF,PressureIn,WindDirection,WindDirectionDegrees,WindSpeedMPH,WindSpeedGustMPH,Humidity,HourlyPrecipIn,Conditions,Clouds,dailyrainin,SoftwareType,DateUTC
2013-02-16 00:00:00,67.6,21.3,30.10,East,95,12.0,20.0,17,0.00,,---,0.00,VWS V14.01,2013-02-16 08:00:00,
2013-02-16 00:03:00,67.8,21.4,30.10,ENE,71,9.0,15.0,17,0.00,,---,0.00,VWS V14.01,2013-02-16 08:03:00,
2013-02-16 00:08:00,68.0,20.2,30.10,ENE,70,7.0,17.0,16,0.00,,---,0.00,VWS V14.01,2013-02-16 08:08:00,
2013-02-16 00:13:00,68.1,21.7,30.10,ENE,62,4.0,17.0,17,0.00,,---,0.00,VWS V14.01,2013-02-16 08:13:00,
2013-02-16 00:15:00,68.1,21.7,30.10,East,88,6.0,17.0,17,0.00,,---,0.00,VWS V14.01,2013-02-16 08:15:00,
2013-02-16 00:18:00,68.0,21.6,30.10,ENE,63,6.0,12.0,17,0.00,,---,0.00,VWS V14.01,2013-02-16 08:18:00,
2013-02-16 00:23:00,67.9,21.5,30.10,ENE,74,2.0,13.0,17,0.00,,---,0.00,VWS V14.01,2013-02-16 08:23:00,
2013-02-16 00:28:00,67.9,21.5,30.10,East,88,3.0,13.0,17,0.00,,---,0.00,VWS V14.01,2013-02-16 08:28:00,
2013-02-16 00:30:00,67.9,21.5,30.11,ESE,107,16.0,16.0,17,0.00,,---,0.00,VWS V14.01,2013-02-16 08:30:00,
2013-02-16 00:33:00,67.9,21.5,30.10,ENE,63,11.0,17.0,17,0.00,,---,0.00,VWS V14.01,2013-02-16 08:33:00,
2013-02-16 00:38:00,68.0,21.6,30.10,East,79,6.0,19.0,17,0.00,,---,0.00,VWS V14.01,2013-02-16 08:38:00,
2013-02-16 00:43:00,68.2,20.3,30.10,East,90,4.0,19.0,16,0.00,,---,0.00,VWS V14.01,2013-02-16 08:43:00,
2013-02-16 00:45:00,68.3,20.4,30.10,East,94,16.0,19.0,16,0.00,,---,0.00,VWS V14.01,2013-02-16 08:45:00,
2013-02-16 00:48:00,68.4,20.5,30.10,East,92,11.0,17.0,16,0.00,,---,0.00,VWS V14.01,2013-02-16 08:48:00,
2013-02-16 00:53:00,68.8,19.3,30.10,East,95,6.0,23.0,15,0.00,,---,0.00,VWS V14.01,2013-02-16 08:53:00,
2013-02-16 00:58:00,69.1,19.5,30.09,East,101,15.0,23.0,15,0.00,,---,0.00,VWS V14.01,2013-02-16 08:58:00,
2013-02-16 01:00:00,69.2,19.6,30.10,ENE,60,5.0,23.0,15,0.00,,---,0.00,VWS V14.01,2013-02-16 09:00:00,
2013-02-16 01:03:00,69.3,19.7,30.09,ENE,76,16.0,16.0,15,0.00,,---,0.00,VWS V14.01,2013-02-16 09:03:00,
2013-02-16 01:08:00,69.4,19.8,30.09,NE,46,6.0,18.0,15,0.00,,---,0.00,VWS V14.01,2013-02-16 09:08:00,
2013-02-16 01:13:00,69.3,19.7,30.09,ENE,63,10.0,19.0,15,0.00,,---,0.00,VWS V14.01,2013-02-16 09:13:00,
2013-02-16 01:15:00,69.3,19.7,30.09,NE,52,10.0,19.0,15,0.00,,---,0.00,VWS V14.01,2013-02-16 09:15:00,
2013-02-16 01:18:00,69.2,19.6,30.09,ENE,61,13.0,16.0,15,0.00,,---,0.00,VWS V14.01,2013-02-16 09:18:00,
2013-02-16 01:23:00,69.0,19.5,30.09,East,81,8.0,21.0,15,0.00,,---,0.00,VWS V14.01,2013-02-16 09:23:00,
2013-02-16 01:28:00,69.0,19.5,30.09,East,80,13.0,21.0,15,0.00,,---,0.00,VWS V14.01,2013-02-16 09:28:00,
2013-02-16 01:30:00,69.0,19.5,30.09,ESE,110,7.0,22.0,15,0.00,,---,0.00,VWS V14.01,2013-02-16 09:30:00,
2013-02-16 01:33:00,69.1,19.5,30.09,East,88,9.0,19.0,15,0.00,,---,0.00,VWS V14.01,2013-02-16 09:33:00,
2013-02-16 01:38:00,69.2,19.6,30.09,ENE,73,19.0,25.0,15,0.00,,---,0.00,VWS V14.01,2013-02-16 09:38:00,
2013-02-16 01:43:00,69.1,19.5,30.08,ENE,68,9.0,29.0,15,0.00,,---,0.00,VWS V14.01,2013-02-16 09:43:00,
2013-02-16 01:45:00,69.0,19.5,30.08,East,93,16.0,29.0,15,0.00,,---,0.00,VWS V14.01,2013-02-16 09:45:00,
2013-02-16 01:48:00,68.9,20.9,30.08,NNE,25,10.0,16.0,16,0.00,,---,0.00,VWS V14.01,2013-02-16 09:48:00,
2013-02-16 01:53:00,68.8,19.3,30.08,NE,55,11.0,20.0,15,0.00,,---,0.00,VWS V14.01,2013-02-16 09:53:00,
2013-02-16 01:58:00,68.7,19.2,30.08,NE,47,10.0,20.0,15,0.00,,---,0.00,VWS V14.01,2013-02-16 09:58:00,
2013-02-16 02:00:00,68.6,19.1,30.08,East,98,14.0,20.0,15,0.00,,---,0.00,VWS V14.01,2013-02-16 10:00:00,
2013-02-16 02:03:00,68.7,20.7,30.08,ENE,72,10.0,20.0,16,0.00,,---,0.00,VWS V14.01,2013-02-16 10:03:00,
2013-02-16 02:08:00,68.6,19.1,30.08,NE,55,6.0,20.0,15,0.00,,---,0.00,VWS V14.01,2013-02-16 10:08:00,
2013-02-16 02:13:00,68.4,20.5,30.08,NE,38,14.0,20.0,16,0.00,,---,0.00,VWS V14.01,2013-02-16 10:13:00,
2013-02-16 02:15:00,68.3,20.4,30.08,NE,41,19.0,20.0,16,0.00,,---,0.00,VWS V14.01,2013-02-16 10:15:00,
2013-02-16 02:18:00,68.2,20.3,30.08,ENE,61,16.0,20.0,16,0.00,,---,0.00,VWS V14.01,2013-02-16 10:18:00,
2013-02-16 02:23:00,68.1,20.2,30.08,ENE,57,14.0,20.0,16,0.00,,---,0.00,VWS V14.01,2013-02-16 10:23:00,
2013-02-16 02:28:00,68.0,20.2,30.08,NE,40,14.0,20.0,16,0.00,,---,0.00,VWS V14.01,2013-02-16 10:28:00,
2013-02-16 02:30:00,67.9,20.1,30.08,NE,40,12.0,20.0,16,0.00,,---,0.00,VWS V14.01,2013-02-16 10:30:00,
2013-02-16 02:33:00,67.9,20.1,30.08,ENE,57,22.0,22.0,16,0.00,,---,0.00,VWS V14.01,2013-02-16 10:33:00,
2013-02-16 02:38:00,67.8,20.0,30.08,ENE,70,13.0,22.0,16,0.00,,---,0.00,VWS V14.01,2013-02-16 10:38:00,
2013-02-16 02:43:00,67.7,19.9,30.08,East,94,11.0,22.0,16,0.00,,---,0.00,VWS V14.01,2013-02-16 10:43:00,
2013-02-16 02:45:00,67.7,19.9,30.08,NE,34,5.0,22.0,16,0.00,,---,0.00,VWS V14.01,2013-02-16 10:45:00,
2013-02-16 02:48:00,67.6,19.9,30.08,NE,51,4.0,16.0,16,0.00,,---,0.00,VWS V14.01,2013-02-16 10:48:00,
2013-02-16 02:53:00,67.5,19.8,30.08,NE,44,9.0,16.0,16,0.00,,---,0.00,VWS V14.01,2013-02-16 10:53:00,
2013-02-16 02:58:00,67.4,19.7,30.07,ENE,74,5.0,16.0,16,0.00,,---,0.00,VWS V14.01,2013-02-16 10:58:00,
2013-02-16 03:00:00,67.4,19.7,30.08,ENE,59,11.0,16.0,16,0.00,,---,0.00,VWS V14.01,2013-02-16 11:00:00,
2013-02-16 03:03:00,67.4,19.7,30.08,ENE,69,9.0,12.0,16,0.00,,---,0.00,VWS V14.01,2013-02-16 11:03:00,
2013-02-16 03:08:00,67.4,19.7,30.08,East,94,9.0,15.0,16,0.00,,---,0.00,VWS V14.01,2013-02-16 11:08:00,
2013-02-16 03:13:00,67.3,19.6,30.08,ENE,63,8.0,15.0,16,0.00,,---,0.00,VWS V14.01,2013-02-16 11:13:00,
2013-02-16 03:15:00,67.3,19.6,30.08,ENE,66,5.0,15.0,16,0.00,,---,0.00,VWS V14.01,2013-02-16 11:15:00,
2013-02-16 03:18:00,67.3,19.6,30.08,NE,49,7.0,14.0,16,0.00,,---,0.00,VWS V14.01,2013-02-16 11:18:00,
2013-02-16 03:23:00,67.3,19.6,30.08,ENE,72,5.0,14.0,16,0.00,,---,0.00,VWS V14.01,2013-02-16 11:23:00,
2013-02-16 03:28:00,67.2,19.5,30.08,East,94,5.0,14.0,16,0.00,,---,0.00,VWS V14.01,2013-02-16 11:28:00,
2013-02-16 03:30:00,67.2,19.5,30.08,ENE,57,13.0,14.0,16,0.00,,---,0.00,VWS V14.01,2013-02-16 11:30:00,
2013-02-16 03:33:00,67.3,19.6,30.08,East,92,1.0,14.0,16,0.00,,---,0.00,VWS V14.01,2013-02-16 11:33:00,
2013-02-16 03:45:00,67.4,19.7,30.08,East,80,5.0,14.0,16,0.00,,---,0.00,VWS V14.01,2013-02-16 11:45:00,
2013-02-16 04:00:00,67.5,19.8,30.08,East,99,5.0,14.0,16,0.00,,---,0.00,VWS V14.01,2013-02-16 12:00:00,
2013-02-16 04:15:00,65.9,19.9,30.08,SSE,166,0.0,6.0,17,0.00,,---,0.00,VWS V14.01,2013-02-16 12:15:00,
2013-02-16 04:30:00,63.6,21.8,30.08,ENE,70,0.0,9.0,20,0.00,,---,0.00,VWS V14.01,2013-02-16 12:30:00,
2013-02-16 04:45:00,61.2,21.0,30.08,ENE,69,0.0,3.0,21,0.00,,---,0.00,VWS V14.01,2013-02-16 12:45:00,
2013-02-16 05:00:00,59.0,22.3,30.09,ENE,69,0.0,2.0,24,0.00,,---,0.00,VWS V14.01,2013-02-16 13:00:00,
2013-02-16 05:15:00,57.5,21.0,30.10,ENE,69,0.0,4.0,24,0.00,,---,0.00,VWS V14.01,2013-02-16 13:15:00,
2013-02-16 05:30:00,56.9,22.4,30.10,East,80,1.0,4.0,26,0.00,,---,0.00,VWS V14.01,2013-02-16 13:30:00,
2013-02-16 05:45:00,57.0,21.5,30.10,East,82,0.0,3.0,25,0.00,,---,0.00,VWS V14.01,2013-02-16 13:45:00,
2013-02-16 06:00:00,56.6,20.2,30.10,NNE,32,0.0,5.0,24,0.00,,---,0.00,VWS V14.01,2013-02-16 14:00:00,
2013-02-16 06:15:00,56.3,21.0,30.11,NNE,32,1.0,4.0,25,0.00,,---,0.00,VWS V14.01,2013-02-16 14:15:00,
2013-02-16 06:30:00,56.6,20.2,30.11,NE,41,0.0,5.0,24,0.00,,---,0.00,VWS V14.01,2013-02-16 14:30:00,
2013-02-16 06:45:00,55.9,22.4,30.11,East,80,0.0,7.0,27,0.00,,---,0.00,VWS V14.01,2013-02-16 14:45:00,
2013-02-16 07:00:00,55.8,22.3,30.12,ENE,78,0.0,4.0,27,0.00,,---,0.00,VWS V14.01,2013-02-16 15:00:00,
2013-02-16 07:15:00,56.6,25.5,30.12,ENE,78,0.0,4.0,30,0.00,,---,0.00,VWS V14.01,2013-02-16 15:15:00,
2013-02-16 07:30:00,58.3,24.5,30.12,ENE,76,0.0,5.0,27,0.00,,---,0.00,VWS V14.01,2013-02-16 15:30:00,
2013-02-16 07:45:00,61.2,26.1,30.12,ENE,76,0.0,3.0,26,0.00,,---,0.00,VWS V14.01,2013-02-16 15:45:00,
2013-02-16 08:00:00,64.9,27.3,30.11,ENE,77,1.0,2.0,24,0.00,,---,0.00,VWS V14.01,2013-02-16 16:00:00,
2013-02-16 08:15:00,67.5,28.4,30.11,ENE,76,0.0,2.0,23,0.00,,---,0.00,VWS V14.01,2013-02-16 16:15:00,
2013-02-16 08:30:00,69.8,33.4,30.11,ENE,77,1.0,4.0,26,0.00,,---,0.00,VWS V14.01,2013-02-16 16:30:00,
2013-02-16 08:45:00,70.9,30.2,30.11,SW,236,1.0,4.0,22,0.00,,---,0.00,VWS V14.01,2013-02-16 16:45:00,
2013-02-16 09:00:00,72.5,33.7,30.11,WSW,246,0.0,5.0,24,0.00,,---,0.00,VWS V14.01,2013-02-16 17:00:00,
2013-02-16 09:15:00,73.6,31.3,30.11,WSW,257,1.0,2.0,21,0.00,,---,0.00,VWS V14.01,2013-02-16 17:15:00,
2013-02-16 09:17:00,73.8,30.3,30.11,WSW,256,0.0,1.0,20,0.00,,---,0.00,VWS V14.01,2013-02-16 17:17:00,
2013-02-16 09:30:00,74.9,28.6,30.10,West,269,0.0,3.0,18,0.00,,---,0.00,VWS V14.01,2013-02-16 17:30:00,
2013-02-16 09:45:00,75.1,30.1,30.11,West,270,0.0,4.0,19,0.00,,---,0.00,VWS V14.01,2013-02-16 17:45:00,
2013-02-16 10:00:00,74.4,28.2,30.11,West,277,4.0,6.0,18,0.00,,---,0.00,VWS V14.01,2013-02-16 18:00:00,
2013-02-16 10:15:00,74.9,29.9,30.10,WNW,287,3.0,4.0,19,0.00,,---,0.00,VWS V14.01,2013-02-16 18:15:00,
2013-02-16 10:30:00,75.1,30.1,30.10,West,263,0.0,6.0,19,0.00,,---,0.00,VWS V14.01,2013-02-16 18:30:00,
2013-02-16 10:45:00,76.0,26.6,30.10,NW,304,0.0,4.0,16,0.00,,---,0.00,VWS V14.01,2013-02-16 18:45:00,
2013-02-16 11:00:00,77.4,34.4,30.09,West,275,2.0,5.0,21,0.00,,---,0.00,VWS V14.01,2013-02-16 19:00:00,
2013-02-16 11:15:00,77.1,31.7,30.08,WSW,257,2.0,5.0,19,0.00,,---,0.00,VWS V14.01,2013-02-16 19:15:00,
2013-02-16 11:30:00,79.7,31.1,30.06,North,355,0.0,6.0,17,0.00,,---,0.00,VWS V14.01,2013-02-16 19:30:00,
2013-02-16 11:47:00,78.4,32.8,30.06,WNW,295,3.0,3.0,19,0.00,,---,0.00,VWS V14.01,2013-02-16 19:47:00,
2013-02-16 11:52:00,78.4,31.4,30.05,WNW,289,6.0,9.0,18,0.00,,---,0.00,VWS V14.01,2013-02-16 19:52:00,
2013-02-16 11:57:00,78.7,34.3,30.05,WSW,246,5.0,9.0,20,0.00,,---,0.00,VWS V14.01,2013-02-16 19:57:00,
2013-02-16 12:02:00,79.1,34.6,30.04,SW,234,9.0,11.0,20,0.00,,---,0.00,VWS V14.01,2013-02-16 20:02:00,
2013-02-16 12:07:00,79.5,33.7,30.04,West,263,6.0,11.0,19,0.00,,---,0.00,VWS V14.01,2013-02-16 20:07:00,
2013-02-16 12:12:00,79.4,32.2,30.04,West,276,4.0,13.0,18,0.00,,---,0.00,VWS V14.01,2013-02-16 20:12:00,
2013-02-16 12:17:00,79.3,33.5,30.03,West,268,6.0,8.0,19,0.00,,---,0.00,VWS V14.01,2013-02-16 20:17:00,
2013-02-16 12:22:00,79.5,33.7,30.03,NW,304,4.0,9.0,19,0.00,,---,0.00,VWS V14.01,2013-02-16 20:22:00,
2013-02-16 12:27:00,79.4,36.1,30.02,WSW,241,3.0,9.0,21,0.00,,---,0.00,VWS V14.01,2013-02-16 20:27:00,
2013-02-16 12:32:00,79.4,34.9,30.02,West,266,6.0,9.0,20,0.00,,---,0.00,VWS V14.01,2013-02-16 20:32:00,
2013-02-16 12:37:00,79.8,33.9,30.02,West,269,6.0,9.0,19,0.00,,---,0.00,VWS V14.01,2013-02-16 20:37:00,
2013-02-16 12:42:00,79.9,35.3,30.01,West,271,4.0,9.0,20,0.00,,---,0.00,VWS V14.01,2013-02-16 20:42:00,
2013-02-16 12:47:00,79.7,33.8,30.01,West,261,4.0,7.0,19,0.00,,---,0.00,VWS V14.01,2013-02-16 20:47:00,
2013-02-16 12:52:00,80.0,35.4,30.01,WSW,252,3.0,9.0,20,0.00,,---,0.00,VWS V14.01,2013-02-16 20:52:00,
2013-02-16 12:57:00,80.3,35.6,30.00,West,263,5.0,9.0,20,0.00,,---,0.00,VWS V14.01,2013-02-16 20:57:00,
2013-02-16 13:02:00,80.0,34.1,30.00,WNW,301,2.0,9.0,19,0.00,,---,0.00,VWS V14.01,2013-02-16 21:02:00,
2013-02-16 13:07:00,79.6,33.8,30.00,WSW,240,5.0,11.0,19,0.00,,---,0.00,VWS V14.01,2013-02-16 21:07:00,
2013-02-16 13:12:00,79.5,37.4,30.00,WNW,288,2.0,11.0,22,0.00,,---,0.00,VWS V14.01,2013-02-16 21:12:00,
2013-02-16 13:17:00,79.2,33.4,30.00,WSW,245,6.0,15.0,19,0.00,,---,0.00,VWS V14.01,2013-02-16 21:17:00,
2013-02-16 13:22:00,79.0,35.8,30.00,West,276,4.0,15.0,21,0.00,,---,0.00,VWS V14.01,2013-02-16 21:22:00,
2013-02-16 13:27:00,79.3,34.8,29.99,West,269,3.0,15.0,20,0.00,,---,0.00,VWS V14.01,2013-02-16 21:27:00,
2013-02-16 13:33:00,78.9,34.5,29.99,WSW,254,4.0,9.0,20,0.00,,---,0.00,VWS V14.01,2013-02-16 21:33:00,
2013-02-16 13:38:00,78.7,31.7,29.99,WSW,242,14.0,14.0,18,0.00,,---,0.00,VWS V14.01,2013-02-16 21:38:00,
2013-02-16 13:43:00,78.7,33.0,29.99,West,261,7.0,17.0,19,0.00,,---,0.00,VWS V14.01,2013-02-16 21:43:00,
2013-02-16 13:48:00,78.7,33.0,29.98,West,261,7.0,10.0,19,0.00,,---,0.00,VWS V14.01,2013-02-16 21:48:00,
2013-02-16 13:53:00,78.9,33.2,29.98,WSW,256,6.0,11.0,19,0.00,,---,0.00,VWS V14.01,2013-02-16 21:53:00,
2013-02-16 13:58:00,78.7,33.0,29.98,WNW,300,4.0,12.0,19,0.00,,---,0.00,VWS V14.01,2013-02-16 21:58:00,
2013-02-16 14:03:00,78.3,31.4,29.98,WSW,257,7.0,10.0,18,0.00,,---,0.00,VWS V14.01,2013-02-16 22:03:00,
2013-02-16 14:08:00,78.6,32.9,29.97,West,271,1.0,10.0,19,0.00,,---,0.00,VWS V14.01,2013-02-16 22:08:00,
2013-02-16 14:13:00,78.7,30.3,29.97,West,260,5.0,10.0,17,0.00,,---,0.00,VWS V14.01,2013-02-16 22:13:00,
2013-02-16 14:18:00,78.5,32.8,29.97,WNW,297,1.0,9.0,19,0.00,,---,0.00,VWS V14.01,2013-02-16 22:18:00,
2013-02-16 14:23:00,78.6,32.9,29.97,West,277,6.0,11.0,19,0.00,,---,0.00,VWS V14.01,2013-02-16 22:23:00,
2013-02-16 14:28:00,78.7,30.3,29.97,WNW,303,3.0,11.0,17,0.00,,---,0.00,VWS V14.01,2013-02-16 22:28:00,
2013-02-16 14:33:00,78.7,33.0,29.97,West,269,4.0,9.0,19,0.00,,---,0.00,VWS V14.01,2013-02-16 22:33:00,
2013-02-16 14:38:00,78.7,33.0,29.96,WSW,242,5.0,13.0,19,0.00,,---,0.00,VWS V14.01,2013-02-16 22:38:00,
2013-02-16 14:43:00,78.5,32.8,29.96,West,281,7.0,13.0,19,0.00,,---,0.00,VWS V14.01,2013-02-16 22:43:00,
2013-02-16 14:48:00,78.2,35.1,29.97,WSW,240,6.0,10.0,21,0.00,,---,0.00,VWS V14.01,2013-02-16 22:48:00,
2013-02-16 14:53:00,78.1,35.0,29.97,WSW,240,5.0,12.0,21,0.00,,---,0.00,VWS V14.01,2013-02-16 22:53:00,
2013-02-16 14:58:00,77.8,34.8,29.97,WSW,256,4.0,12.0,21,0.00,,---,0.00,VWS V14.01,2013-02-16 22:58:00,
2013-02-16 15:03:00,77.7,33.5,29.97,West,277,3.0,10.0,20,0.00,,---,0.00,VWS V14.01,2013-02-16 23:03:00,
2013-02-16 15:08:00,77.3,31.9,29.96,West,272,5.0,10.0,19,0.00,,---,0.00,VWS V14.01,2013-02-16 23:08:00,
2013-02-16 15:13:00,77.0,32.9,29.96,WSW,246,5.0,10.0,20,0.00,,---,0.00,VWS V14.01,2013-02-16 23:13:00,
2013-02-16 15:18:00,76.9,32.8,29.97,WSW,244,5.0,9.0,20,0.00,,---,0.00,VWS V14.01,2013-02-16 23:18:00,
2013-02-16 15:23:00,76.8,34.0,29.96,West,267,1.0,10.0,21,0.00,,---,0.00,VWS V14.01,2013-02-16 23:23:00,
2013-02-16 15:28:00,76.7,32.7,29.96,NW,316,3.0,10.0,20,0.00,,---,0.00,VWS V14.01,2013-02-16 23:28:00,
2013-02-16 15:33:00,76.2,32.2,29.96,NW,305,1.0,7.0,20,0.00,,---,0.00,VWS V14.01,2013-02-16 23:33:00,
2013-02-16 15:38:00,75.9,33.2,29.96,West,270,7.0,9.0,21,0.00,,---,0.00,VWS V14.01,2013-02-16 23:38:00,
2013-02-16 15:43:00,75.7,31.8,29.96,West,271,2.0,10.0,20,0.00,,---,0.00,VWS V14.01,2013-02-16 23:43:00,
2013-02-16 15:48:00,75.1,30.1,29.97,WNW,296,2.0,7.0,19,0.00,,---,0.00,VWS V14.01,2013-02-16 23:48:00,
2013-02-16 15:53:00,74.6,30.9,29.97,West,267,4.0,9.0,20,0.00,,---,0.00,VWS V14.01,2013-02-16 23:53:00,
2013-02-16 15:58:00,74.1,29.2,29.97,NNW,336,8.0,10.0,19,0.00,,---,0.00,VWS V14.01,2013-02-16 23:58:00,
2013-02-16 16:03:00,73.7,28.9,29.98,WNW,283,5.0,8.0,19,0.00,,---,0.00,VWS V14.01,2013-02-17 00:03:00,
2013-02-16 16:08:00,73.2,29.8,29.98,WNW,287,5.0,9.0,20,0.00,,---,0.00,VWS V14.01,2013-02-17 00:08:00,
2013-02-16 16:13:00,73.1,29.7,29.98,WNW,288,0.0,10.0,20,0.00,,---,0.00,VWS V14.01,2013-02-17 00:13:00,
2013-02-16 16:18:00,72.9,29.5,29.98,WNW,301,6.0,7.0,20,0.00,,---,0.00,VWS V14.01,2013-02-17 00:18:00,
2013-02-16 16:23:00,72.5,27.9,29.98,West,275,2.0,9.0,19,0.00,,---,0.00,VWS V14.01,2013-02-17 00:23:00,
2013-02-16 16:28:00,72.2,30.1,29.98,NW,310,4.0,9.0,21,0.00,,---,0.00,VWS V14.01,2013-02-17 00:28:00,
2013-02-16 16:33:00,72.1,30.0,29.97,WNW,298,1.0,4.0,21,0.00,,---,0.00,VWS V14.01,2013-02-17 00:33:00,
2013-02-16 16:38:00,72.1,31.2,29.97,West,261,0.0,6.0,22,0.00,,---,0.00,VWS V14.01,2013-02-17 00:38:00,
2013-02-16 16:43:00,72.0,30.0,29.98,WNW,296,0.0,6.0,21,0.00,,---,0.00,VWS V14.01,2013-02-17 00:43:00,
2013-02-16 16:48:00,71.8,29.8,29.98,WNW,298,2.0,3.0,21,0.00,,---,0.00,VWS V14.01,2013-02-17 00:48:00,
2013-02-16 16:53:00,71.5,30.7,29.97,West,269,0.0,5.0,22,0.00,,---,0.00,VWS V14.01,2013-02-17 00:53:00,
2013-02-16 16:58:00,71.3,30.5,29.98,WNW,286,4.0,5.0,22,0.00,,---,0.00,VWS V14.01,2013-02-17 00:58:00,
2013-02-16 17:03:00,70.9,31.3,29.98,WNW,284,0.0,2.0,23,0.00,,---,0.00,VWS V14.01,2013-02-17 01:03:00,
2013-02-16 17:08:00,70.6,31.0,29.98,WNW,298,0.0,3.0,23,0.00,,---,0.00,VWS V14.01,2013-02-17 01:08:00,
2013-02-16 17:13:00,70.2,29.6,29.98,WNW,300,4.0,5.0,22,0.00,,---,0.00,VWS V14.01,2013-02-17 01:13:00,
2013-02-16 17:18:00,69.9,29.4,29.98,WNW,287,0.0,3.0,22,0.00,,---,0.00,VWS V14.01,2013-02-17 01:18:00,
2013-02-16 17:23:00,69.6,28.0,29.98,WNW,302,0.0,5.0,21,0.00,,---,0.00,VWS V14.01,2013-02-17 01:23:00,
2013-02-16 17:28:00,69.5,27.9,29.98,WNW,286,0.0,5.0,21,0.00,,---,0.00,VWS V14.01,2013-02-17 01:28:00,
2013-02-16 17:33:00,69.3,28.9,29.98,WNW,300,0.0,1.0,22,0.00,,---,0.00,VWS V14.01,2013-02-17 01:33:00,
2013-02-16 17:38:00,69.0,28.6,29.98,NW,304,0.0,4.0,22,0.00,,---,0.00,VWS V14.01,2013-02-17 01:38:00,
2013-02-16 17:43:00,68.7,28.4,29.98,NW,309,0.0,4.0,22,0.00,,---,0.00,VWS V14.01,2013-02-17 01:43:00,
2013-02-16 17:48:00,68.3,29.1,29.98,NW,309,0.0,0.0,23,0.00,,---,0.00,VWS V14.01,2013-02-17 01:48:00,
2013-02-16 17:53:00,67.8,28.7,29.98,NW,315,0.0,0.0,23,0.00,,---,0.00,VWS V14.01,2013-02-17 01:53:00,
2013-02-16 17:58:00,67.3,29.3,29.98,NW,316,0.0,1.0,24,0.00,,---,0.00,VWS V14.01,2013-02-17 01:58:00,
2013-02-16 18:03:00,66.7,28.8,29.99,NW,315,0.0,1.0,24,0.00,,---,0.00,VWS V14.01,2013-02-17 02:03:00,
2013-02-16 18:08:00,66.3,29.5,29.99,NW,316,0.0,1.0,25,0.00,,---,0.00,VWS V14.01,2013-02-17 02:08:00,
2013-02-16 18:13:00,65.8,29.0,29.99,NW,317,0.0,2.0,25,0.00,,---,0.00,VWS V14.01,2013-02-17 02:13:00,
2013-02-16 18:18:00,65.2,29.5,29.99,NNE,30,2.0,3.0,26,0.00,,---,0.00,VWS V14.01,2013-02-17 02:18:00,
2013-02-16 18:23:00,64.7,30.0,29.99,NNE,33,2.0,4.0,27,0.00,,---,0.00,VWS V14.01,2013-02-17 02:23:00,
2013-02-16 18:28:00,64.2,30.4,29.99,NE,46,2.0,5.0,28,0.00,,---,0.00,VWS V14.01,2013-02-17 02:28:00,
2013-02-16 18:33:00,63.7,30.0,29.99,NE,51,3.0,6.0,28,0.00,,---,0.00,VWS V14.01,2013-02-17 02:33:00,
2013-02-16 18:38:00,63.3,29.7,29.99,NE,49,3.0,6.0,28,0.00,,---,0.00,VWS V14.01,2013-02-17 02:38:00,
2013-02-16 18:43:00,62.9,29.3,29.99,NE,51,3.0,6.0,28,0.00,,---,0.00,VWS V14.01,2013-02-17 02:43:00,
2013-02-16 18:48:00,62.7,29.1,29.99,NE,51,1.0,5.0,28,0.00,,---,0.00,VWS V14.01,2013-02-17 02:48:00,
2013-02-16 18:53:00,62.4,28.9,29.99,NE,49,3.0,6.0,28,0.00,,---,0.00,VWS V14.01,2013-02-17 02:53:00,
2013-02-16 18:58:00,62.2,29.6,29.99,NE,53,2.0,6.0,29,0.00,,---,0.00,VWS V14.01,2013-02-17 02:58:00,
2013-02-16 19:03:00,62.0,29.4,29.98,NNE,32,4.0,6.0,29,0.00,,---,0.00,VWS V14.01,2013-02-17 03:03:00,
2013-02-16 19:08:00,61.8,29.2,29.98,NE,49,4.0,9.0,29,0.00,,---,0.00,VWS V14.01,2013-02-17 03:08:00,
2013-02-16 19:13:00,61.7,29.1,29.98,NE,42,6.0,9.0,29,0.00,,---,0.00,VWS V14.01,2013-02-17 03:13:00,
2013-02-16 19:18:00,61.6,29.1,29.98,NE,47,2.0,6.0,29,0.00,,---,0.00,VWS V14.01,2013-02-17 03:18:00,
2013-02-16 19:23:00,61.4,28.9,29.98,NNE,25,3.0,9.0,29,0.00,,---,0.00,VWS V14.01,2013-02-17 03:23:00,
2013-02-16 19:28:00,61.3,28.8,29.98,NE,53,5.0,10.0,29,0.00,,---,0.00,VWS V14.01,2013-02-17 03:28:00,
2013-02-16 19:33:00,61.1,28.6,29.98,NE,49,3.0,9.0,29,0.00,,---,0.00,VWS V14.01,2013-02-17 03:33:00,
2013-02-16 19:38:00,60.9,28.5,29.98,NE,53,8.0,9.0,29,0.00,,---,0.00,VWS V14.01,2013-02-17 03:38:00,
2013-02-16 19:43:00,60.8,28.4,29.97,ENE,58,7.0,9.0,29,0.00,,---,0.00,VWS V14.01,2013-02-17 03:43:00,
2013-02-16 19:48:00,60.7,28.3,29.97,NE,53,4.0,8.0,29,0.00,,---,0.00,VWS V14.01,2013-02-17 03:48:00,
2013-02-16 19:53:00,60.5,27.3,29.97,NE,51,5.0,8.0,28,0.00,,---,0.00,VWS V14.01,2013-02-17 03:53:00,
2013-02-16 19:58:00,60.4,27.2,29.97,NE,50,4.0,10.0,28,0.00,,---,0.00,VWS V14.01,2013-02-17 03:58:00,
2013-02-16 20:03:00,60.4,27.2,29.97,NE,51,3.0,7.0,28,0.00,,---,0.00,VWS V14.01,2013-02-17 04:03:00,
2013-02-16 20:08:00,60.3,27.1,29.97,NE,46,3.0,7.0,28,0.00,,---,0.00,VWS V14.01,2013-02-17 04:08:00,
2013-02-16 20:13:00,60.1,26.9,29.97,NE,49,4.0,9.0,28,0.00,,---,0.00,VWS V14.01,2013-02-17 04:13:00,
2013-02-16 20:18:00,60.0,26.8,29.97,NE,52,3.0,6.0,28,0.00,,---,0.00,VWS V14.01,2013-02-17 04:18:00,
2013-02-16 20:23:00,59.9,26.7,29.97,ENE,58,4.0,10.0,28,0.00,,---,0.00,VWS V14.01,2013-02-17 04:23:00,
2013-02-16 20:28:00,59.8,26.6,29.97,NE,52,3.0,10.0,28,0.00,,---,0.00,VWS V14.01,2013-02-17 04:28:00,
2013-02-16 20:33:00,59.7,26.6,29.97,ENE,62,3.0,6.0,28,0.00,,---,0.00,VWS V14.01,2013-02-17 04:33:00,
2013-02-16 20:38:00,59.6,26.5,29.97,NE,47,7.0,7.0,28,0.00,,---,0.00,VWS V14.01,2013-02-17 04:38:00,
2013-02-16 20:43:00,59.5,27.2,29.97,NE,52,9.0,10.0,29,0.00,,---,0.00,VWS V14.01,2013-02-17 04:43:00,
2013-02-16 20:49:00,59.4,26.3,29.97,NE,44,4.0,7.0,28,0.00,,---,0.00,VWS V14.01,2013-02-17 04:49:00,
2013-02-16 20:54:00,59.3,26.2,29.97,NE,53,2.0,7.0,28,0.00,,---,0.00,VWS V14.01,2013-02-17 04:54:00,
2013-02-16 20:58:00,59.2,27.0,29.97,NE,48,5.0,10.0,29,0.00,,---,0.00,VWS V14.01,2013-02-17 04:58:00,
2013-02-16 21:00:00,59.1,26.9,29.97,NE,44,5.0,10.0,29,0.00,,---,0.00,VWS V14.01,2013-02-17 05:00:00,
2013-02-16 21:01:00,59.0,26.8,29.97,NE,49,5.0,9.0,29,0.00,,---,0.00,VWS V14.01,2013-02-17 05:01:00,
2013-02-16 21:06:00,59.0,26.8,29.97,NE,46,9.0,10.0,29,0.00,,---,0.00,VWS V14.01,2013-02-17 05:06:00,
2013-02-16 21:11:00,59.0,26.0,29.97,ENE,60,7.0,10.0,28,0.00,,---,0.00,VWS V14.01,2013-02-17 05:11:00,
2013-02-16 21:16:00,59.0,26.0,29.97,ENE,60,5.0,5.0,28,0.00,,---,0.00,VWS V14.01,2013-02-17 05:16:00,
2013-02-16 21:21:00,58.8,25.8,29.97,NE,55,2.0,6.0,28,0.00,,---,0.00,VWS V14.01,2013-02-17 05:21:00,
2013-02-16 21:26:00,58.7,25.7,29.97,NE,50,3.0,8.0,28,0.00,,---,0.00,VWS V14.01,2013-02-17 05:26:00,
2013-02-16 21:31:00,58.6,25.6,29.97,NE,44,5.0,6.0,28,0.00,,---,0.00,VWS V14.01,2013-02-17 05:31:00,
2013-02-16 21:36:00,58.6,25.6,29.97,NE,52,3.0,9.0,28,0.00,,---,0.00,VWS V14.01,2013-02-17 05:36:00,
2013-02-16 21:41:00,58.5,25.5,29.97,ENE,59,5.0,10.0,28,0.00,,---,0.00,VWS V14.01,2013-02-17 05:41:00,
2013-02-16 21:46:00,58.4,25.5,29.97,NE,48,4.0,9.0,28,0.00,,---,0.00,VWS V14.01,2013-02-17 05:46:00,
2013-02-16 21:51:00,58.3,25.4,29.96,NE,45,3.0,9.0,28,0.00,,---,0.00,VWS V14.01,2013-02-17 05:51:00,
2013-02-16 21:56:00,58.3,25.4,29.96,NE,51,3.0,9.0,28,0.00,,---,0.00,VWS V14.01,2013-02-17 05:56:00,
2013-02-16 22:01:00,58.2,25.3,29.96,ENE,59,5.0,10.0,28,0.00,,---,0.00,VWS V14.01,2013-02-17 06:01:00,
2013-02-16 22:06:00,58.1,25.2,29.96,NE,46,10.0,10.0,28,0.00,,---,0.00,VWS V14.01,2013-02-17 06:06:00,
2013-02-16 22:11:00,58.1,25.2,29.96,NE,54,6.0,10.0,28,0.00,,---,0.00,VWS V14.01,2013-02-17 06:11:00,
2013-02-16 22:16:00,58.1,25.2,29.96,NE,44,4.0,5.0,28,0.00,,---,0.00,VWS V14.01,2013-02-17 06:16:00,
2013-02-16 22:21:00,58.1,25.2,29.96,NE,49,3.0,7.0,28,0.00,,---,0.00,VWS V14.01,2013-02-17 06:21:00,
2013-02-16 22:26:00,58.1,25.2,29.96,NE,55,5.0,7.0,28,0.00,,---,0.00,VWS V14.01,2013-02-17 06:26:00,
2013-02-16 22:31:00,58.0,25.1,29.96,NE,55,3.0,4.0,28,0.00,,---,0.00,VWS V14.01,2013-02-17 06:31:00,
2013-02-16 22:36:00,57.9,25.0,29.96,NE,48,6.0,6.0,28,0.00,,---,0.00,VWS V14.01,2013-02-17 06:36:00,
2013-02-16 22:41:00,57.8,24.9,29.95,NE,55,4.0,9.0,28,0.00,,---,0.00,VWS V14.01,2013-02-17 06:41:00,
2013-02-16 22:46:00,57.8,24.9,29.95,NE,56,3.0,4.0,28,0.00,,---,0.00,VWS V14.01,2013-02-17 06:46:00,
2013-02-16 22:51:00,57.6,24.8,29.95,NE,55,3.0,5.0,28,0.00,,---,0.00,VWS V14.01,2013-02-17 06:51:00,
2013-02-16 22:56:00,57.4,24.6,29.95,NE,50,5.0,7.0,28,0.00,,---,0.00,VWS V14.01,2013-02-17 06:56:00,
2013-02-16 23:01:00,57.3,24.5,29.95,NE,47,6.0,6.0,28,0.00,,---,0.00,VWS V14.01,2013-02-17 07:01:00,
2013-02-16 23:06:00,57.1,25.2,29.95,NE,55,4.0,6.0,29,0.00,,---,0.00,VWS V14.01,2013-02-17 07:06:00,
2013-02-16 23:11:00,57.1,25.2,29.94,NE,53,2.0,6.0,29,0.00,,---,0.00,VWS V14.01,2013-02-17 07:11:00,
2013-02-16 23:16:00,56.9,25.0,29.94,NE,53,3.0,3.0,29,0.00,,---,0.00,VWS V14.01,2013-02-17 07:16:00,
2013-02-16 23:21:00,56.8,24.9,29.94,NE,53,2.0,5.0,29,0.00,,---,0.00,VWS V14.01,2013-02-17 07:21:00,
2013-02-16 23:26:00,56.6,24.7,29.94,NE,55,2.0,5.0,29,0.00,,---,0.00,VWS V14.01,2013-02-17 07:26:00,
2013-02-16 23:31:00,56.4,24.6,29.94,NE,55,2.0,4.0,29,0.00,,---,0.00,VWS V14.01,2013-02-17 07:31:00,
2013-02-16 23:36:00,56.2,24.4,29.94,NE,54,3.0,4.0,29,0.00,,---,0.00,VWS V14.01,2013-02-17 07:36:00,
2013-02-16 23:41:00,56.0,24.2,29.94,NE,55,2.0,4.0,29,0.00,,---,0.00,VWS V14.01,2013-02-17 07:41:00,
2013-02-16 23:46:00,55.9,25.7,29.94,NE,55,0.0,0.0,31,0.00,,---,0.00,VWS V14.01,2013-02-17 07:46:00,
2013-02-16 23:51:00,55.7,25.5,29.94,NE,54,4.0,5.0,31,0.00,,---,0.00,VWS V14.01,2013-02-17 07:51:00,
2013-02-16 23:56:00,55.5,23.8,29.94,NE,51,4.0,8.0,29,0.00,,---,0.00,VWS V14.01,2013-02-17 07:56:00,